Time;durP1;ratioP1;P1;durP2;ratioP2;P2;SDS_P1;SDS_P2;PMS_P1;PMS_P2;Temp;Humidity;BMP_temperature;BMP_pressure;BME280_temperature;BME280_humidity;BME280_pressure;Samples;Min_cycle;Max_cycle;Signal;HPM_P1;HPM_P2
2021/07/13 00:00:40;;;;;;;35.00;26.93;;;18.70;99.90;;;;;;4974529;28;20199;-85
2021/07/13 00:03:18;;;;;;;32.23;26.53;;;18.70;99.90;;;;;;4980129;28;20251;-87
2021/07/13 00:05:48;;;;;;;36.37;26.47;;;18.70;99.90;;;;;;4976410;28;20228;-86
2021/07/13 00:08:17;;;;;;;32.27;26.53;;;18.70;99.90;;;;;;4978068;28;20454;-85
2021/07/13 00:10:46;;;;;;;29.43;26.07;;;18.70;99.90;;;;;;4976941;28;20202;-84
2021/07/13 00:13:16;;;;;;;30.33;25.40;;;18.70;99.90;;;;;;4976653;28;20526;-85
2021/07/13 00:15:45;;;;;;;31.67;25.33;;;18.70;99.90;;;;;;4977369;28;20204;-84
2021/07/13 00:18:14;;;;;;;32.80;25.40;;;18.80;99.90;;;;;;4975999;28;20448;-84
2021/07/13 00:20:43;;;;;;;31.67;24.13;;;18.80;99.90;;;;;;4977935;28;20196;-87
2021/07/13 00:23:12;;;;;;;32.80;25.00;;;18.80;99.90;;;;;;4979353;28;20216;-85
2021/07/13 00:25:41;;;;;;;29.23;23.87;;;18.70;99.90;;;;;;4979323;28;20220;-84
2021/07/13 00:28:10;;;;;;;27.87;23.47;;;18.70;99.90;;;;;;4995999;28;20202;-83
2021/07/13 00:30:40;;;;;;;27.63;23.43;;;18.80;99.90;;;;;;5003711;28;20196;-86
2021/07/13 00:33:10;;;;;;;31.23;24.90;;;18.70;99.90;;;;;;4986598;28;20200;-84
2021/07/13 00:35:38;;;;;;;29.40;23.90;;;18.80;99.90;;;;;;4988661;28;20206;-85
2021/07/13 00:38:08;;;;;;;28.97;24.37;;;18.80;99.90;;;;;;4988472;28;20204;-86
2021/07/13 00:40:36;;;;;;;28.60;23.57;;;18.80;99.90;;;;;;4998621;28;21005;-86
2021/07/13 00:43:05;;;;;;;28.50;23.77;;;18.80;99.90;;;;;;4997692;28;20181;-84
2021/07/13 00:45:34;;;;;;;28.40;23.47;;;18.80;99.90;;;;;;5003308;28;20250;-84
2021/07/13 00:48:06;;;;;;;26.20;22.83;;;18.80;99.90;;;;;;5001445;28;20582;-86
2021/07/13 00:50:35;;;;;;;29.63;22.90;;;18.80;99.90;;;;;;5001743;28;20204;-88
2021/07/13 00:53:04;;;;;;;25.80;21.83;;;18.80;99.90;;;;;;4994721;28;20204;-84
2021/07/13 00:55:33;;;;;;;27.47;22.47;;;18.80;99.90;;;;;;4990177;28;20211;-86
2021/07/13 00:58:04;;;;;;;27.53;22.97;;;18.80;99.90;;;;;;4977731;28;20196;-86
2021/07/13 01:00:35;;;;;;;26.30;21.90;;;18.70;99.90;;;;;;4989031;28;20196;-84
2021/07/13 01:03:07;;;;;;;24.53;20.93;;;18.80;99.90;;;;;;4988941;28;20201;-84
2021/07/13 01:05:41;;;;;;;22.47;20.03;;;18.80;99.90;;;;;;4970965;28;20251;-86
2021/07/13 01:08:29;;;;;;;21.90;18.80;;;18.80;99.90;;;;;;4965873;28;20860;-86
2021/07/13 01:11:07;;;;;;;18.37;16.37;;;18.70;99.90;;;;;;4989924;28;20214;-83
2021/07/13 01:13:41;;;;;;;18.13;15.97;;;18.70;99.90;;;;;;4993700;28;20206;-86
2021/07/13 01:16:14;;;;;;;18.07;15.70;;;18.60;99.90;;;;;;5002631;28;20502;-85
2021/07/13 01:18:53;;;;;;;17.33;15.50;;;18.60;99.90;;;;;;4999012;28;20219;-86
2021/07/13 01:21:33;;;;;;;18.47;16.57;;;18.50;99.90;;;;;;5000831;28;20204;-87
2021/07/13 01:24:30;;;;;;;17.77;15.67;;;18.50;99.90;;;;;;4983500;28;20220;-84
2021/07/13 01:27:14;;;;;;;18.43;15.67;;;18.40;99.90;;;;;;4994556;28;20212;-86
2021/07/13 01:29:48;;;;;;;21.13;18.50;;;18.30;99.90;;;;;;5001916;28;20188;-85
2021/07/13 01:32:21;;;;;;;20.13;16.37;;;18.30;99.90;;;;;;5001271;28;20192;-86
2021/07/13 01:34:56;;;;;;;19.67;16.00;;;18.20;99.90;;;;;;5005868;28;20295;-86
2021/07/13 01:37:26;;;;;;;18.77;16.53;;;18.20;99.90;;;;;;4980099;28;20215;-87
2021/07/13 01:39:56;;;;;;;18.67;16.73;;;18.10;99.90;;;;;;4979130;28;20220;-85
2021/07/13 01:42:26;;;;;;;19.77;17.73;;;18.30;99.90;;;;;;5004431;28;20196;-85
2021/07/13 01:44:58;;;;;;;21.53;17.67;;;18.20;99.90;;;;;;4996365;28;20208;-87
2021/07/13 01:47:30;;;;;;;19.83;17.30;;;18.30;99.90;;;;;;4986668;28;20228;-86
2021/07/13 01:50:01;;;;;;;20.27;17.10;;;18.20;99.90;;;;;;4973600;28;20218;-86
2021/07/13 01:52:31;;;;;;;19.30;17.03;;;18.20;99.90;;;;;;4992786;28;21042;-85
2021/07/13 01:55:02;;;;;;;20.67;17.43;;;18.20;99.90;;;;;;4991674;28;20196;-86
2021/07/13 01:57:34;;;;;;;18.43;16.43;;;18.30;99.90;;;;;;4992255;28;20215;-87
2021/07/13 02:00:10;;;;;;;21.80;18.97;;;18.30;99.90;;;;;;4992212;28;21006;-87
2021/07/13 02:02:42;;;;;;;18.77;16.90;;;18.20;99.90;;;;;;4993445;28;20658;-87
2021/07/13 02:05:12;;;;;;;19.97;17.87;;;18.30;99.90;;;;;;4986207;28;20427;-86
2021/07/13 02:07:49;;;;;;;20.73;17.87;;;18.30;99.90;;;;;;4988872;28;20212;-85
2021/07/13 02:10:19;;;;;;;22.10;17.47;;;18.40;99.90;;;;;;4989259;28;20367;-84
2021/07/13 02:12:49;;;;;;;20.87;17.57;;;18.40;99.90;;;;;;5005280;28;20203;-85
2021/07/13 02:15:28;;;;;;;20.77;17.63;;;18.40;99.90;;;;;;4992626;23;20308;31
2021/07/13 02:17:58;;;;;;;18.77;16.87;;;18.40;99.90;;;;;;4946753;28;20554;-84
2021/07/13 02:20:27;;;;;;;18.50;16.47;;;18.40;99.90;;;;;;4922370;29;20229;-85
2021/07/13 02:22:56;;;;;;;18.73;16.63;;;18.40;99.90;;;;;;4941308;28;20194;-86
2021/07/13 02:25:26;;;;;;;19.50;15.97;;;18.30;99.90;;;;;;4932903;28;20336;-84
2021/07/13 02:28:05;;;;;;;19.07;17.07;;;18.30;99.90;;;;;;4948297;28;20229;-88
2021/07/13 02:30:41;;;;;;;18.00;16.13;;;18.40;99.90;;;;;;4942261;28;20233;-85
2021/07/13 02:33:17;;;;;;;19.37;15.60;;;18.40;99.90;;;;;;4938864;28;20676;-85
2021/07/13 02:35:51;;;;;;;18.63;16.70;;;18.40;99.90;;;;;;4916872;29;20526;-86
2021/07/13 02:38:21;;;;;;;20.33;17.13;;;18.50;99.90;;;;;;4922378;29;20216;-85
2021/07/13 02:40:52;;;;;;;14.80;11.97;;;18.60;99.90;;;;;;4922363;28;20217;-85
2021/07/13 02:43:22;;;;;;;9.30;8.27;;;18.50;99.90;;;;;;4921093;29;20743;-85
2021/07/13 02:45:53;;;;;;;7.47;6.77;;;18.50;99.90;;;;;;4921776;29;20262;-86
2021/07/13 02:48:23;;;;;;;6.07;5.47;;;18.40;99.90;;;;;;4942575;28;20202;-84
2021/07/13 02:50:54;;;;;;;5.97;5.47;;;18.30;99.90;;;;;;4927648;28;20202;-85
2021/07/13 02:53:25;;;;;;;5.93;5.43;;;18.30;99.90;;;;;;4922401;28;20273;-86
2021/07/13 02:55:55;;;;;;;6.60;4.87;;;18.30;99.90;;;;;;4920482;29;20210;-86
2021/07/13 02:58:24;;;;;;;4.63;4.20;;;18.30;99.90;;;;;;4915639;29;20375;-84
2021/07/13 03:00:57;;;;;;;5.83;4.80;;;18.40;99.90;;;;;;4906439;29;20732;-87
2021/07/13 03:03:27;;;;;;;6.80;4.70;;;18.40;99.90;;;;;;4922166;29;20206;-83
2021/07/13 03:05:57;;;;;;;6.10;5.50;;;18.30;99.90;;;;;;4924578;28;20224;-85
2021/07/13 03:08:26;;;;;;;7.10;6.13;;;18.30;99.90;;;;;;4918922;29;20234;-81
2021/07/13 03:10:56;;;;;;;9.57;7.10;;;18.30;99.90;;;;;;4927058;28;20236;-85
2021/07/13 03:13:26;;;;;;;12.23;7.63;;;18.20;99.90;;;;;;4923738;29;20297;-83
2021/07/13 03:15:56;;;;;;;11.50;8.90;;;18.10;99.90;;;;;;4925360;29;22087;-83
2021/07/13 03:18:26;;;;;;;10.73;9.37;;;18.10;99.90;;;;;;4926754;29;20229;-83
2021/07/13 03:20:57;;;;;;;13.07;9.33;;;18.10;99.90;;;;;;4928281;28;20214;-84
2021/07/13 03:23:27;;;;;;;12.43;9.07;;;18.10;99.90;;;;;;4930272;29;20194;-82
2021/07/13 03:25:57;;;;;;;11.73;9.73;;;18.10;99.90;;;;;;4933011;28;20217;-85
2021/07/13 03:28:27;;;;;;;11.40;9.60;;;18.00;99.90;;;;;;4921252;29;20234;-82
2021/07/13 03:30:58;;;;;;;15.23;10.33;;;18.00;99.90;;;;;;4923750;28;20217;-82
2021/07/13 03:33:27;;;;;;;14.03;10.13;;;18.00;99.90;;;;;;4921139;29;20253;-82
2021/07/13 03:35:56;;;;;;;14.30;11.37;;;18.00;99.90;;;;;;4909146;29;20222;-83
2021/07/13 03:38:25;;;;;;;15.37;12.50;;;18.10;99.90;;;;;;4929818;28;20228;-82
2021/07/13 03:40:54;;;;;;;18.87;12.30;;;18.10;99.90;;;;;;4931112;28;20266;-82
2021/07/13 03:43:27;;;;;;;15.27;12.90;;;18.10;99.90;;;;;;4923406;29;20217;-84
2021/07/13 03:45:58;;;;;;;16.30;12.90;;;18.20;99.90;;;;;;4915274;29;20241;-84
2021/07/13 03:48:28;;;;;;;16.27;13.43;;;18.20;99.90;;;;;;4913834;29;20229;-83
2021/07/13 03:50:57;;;;;;;13.07;11.60;;;18.20;99.90;;;;;;4919982;29;20222;-85
2021/07/13 03:53:26;;;;;;;17.63;13.60;;;18.30;99.90;;;;;;4914862;29;20715;-83
2021/07/13 03:55:55;;;;;;;17.20;14.07;;;18.30;99.90;;;;;;4920570;29;20209;-83
2021/07/13 03:58:23;;;;;;;16.03;14.20;;;18.40;99.90;;;;;;4919579;29;20214;-85
2021/07/13 04:00:52;;;;;;;15.37;13.77;;;18.60;99.90;;;;;;4929398;29;20261;-83
2021/07/13 04:03:23;;;;;;;15.40;12.93;;;18.70;99.90;;;;;;4937541;28;20218;-85
2021/07/13 04:05:52;;;;;;;14.40;12.73;;;18.70;99.90;;;;;;4924145;29;20322;-83
2021/07/13 04:08:21;;;;;;;14.23;12.70;;;18.80;99.90;;;;;;4923720;28;20855;-83
2021/07/13 04:10:49;;;;;;;15.83;13.03;;;18.80;99.90;;;;;;4920079;29;20724;-85
2021/07/13 04:13:19;;;;;;;15.97;13.03;;;18.80;99.90;;;;;;4932030;28;20979;-83
2021/07/13 04:15:48;;;;;;;16.07;12.80;;;18.80;99.90;;;;;;4928675;29;20222;-83
2021/07/13 04:18:18;;;;;;;15.77;13.10;;;18.80;99.90;;;;;;4924537;29;20499;-84
2021/07/13 04:20:49;;;;;;;17.40;12.13;;;18.80;99.90;;;;;;4924152;29;20217;-84
2021/07/13 04:23:17;;;;;;;13.40;11.87;;;18.80;99.90;;;;;;4921314;29;20210;-82
2021/07/13 04:25:46;;;;;;;13.40;11.10;;;18.80;99.90;;;;;;4917882;29;20269;-85
2021/07/13 04:28:15;;;;;;;12.07;10.83;;;18.80;99.90;;;;;;4917385;29;21736;-84
2021/07/13 04:30:44;;;;;;;12.63;10.73;;;18.80;99.90;;;;;;4921761;29;20198;-84
2021/07/13 04:33:13;;;;;;;13.80;10.93;;;18.70;99.90;;;;;;4924393;29;20213;-85
2021/07/13 04:35:42;;;;;;;14.67;12.83;;;18.70;99.90;;;;;;4915434;29;20216;-83
2021/07/13 04:38:12;;;;;;;13.83;11.73;;;18.80;99.90;;;;;;4925351;29;20233;-82
2021/07/13 04:40:42;;;;;;;13.17;11.10;;;18.80;99.90;;;;;;4921535;29;20290;-84
2021/07/13 04:43:13;;;;;;;20.20;15.77;;;18.70;99.90;;;;;;4924958;29;20206;-86
2021/07/13 04:45:42;;;;;;;14.07;12.43;;;18.70;99.90;;;;;;4916787;29;20714;-82
2021/07/13 04:48:11;;;;;;;14.77;12.53;;;18.80;99.90;;;;;;4919377;29;20230;-83
2021/07/13 04:50:40;;;;;;;14.97;12.63;;;18.90;99.90;;;;;;4928031;29;20209;-86
2021/07/13 04:53:10;;;;;;;16.43;13.33;;;18.90;99.90;;;;;;4926585;29;20193;-83
2021/07/13 04:55:41;;;;;;;16.57;13.67;;;18.90;99.90;;;;;;4923907;29;20209;-85
2021/07/13 04:58:09;;;;;;;15.67;12.57;;;18.90;99.90;;;;;;4915313;29;20739;-87
2021/07/13 05:00:38;;;;;;;17.00;13.30;;;19.00;99.90;;;;;;4918435;29;20339;-85
2021/07/13 05:03:07;;;;;;;15.83;14.03;;;19.00;99.90;;;;;;4924957;29;20870;-84
2021/07/13 05:05:41;;;;;;;17.03;15.10;;;19.10;99.90;;;;;;4932792;28;20238;-84
2021/07/13 05:08:11;;;;;;;17.13;15.33;;;19.20;99.90;;;;;;4924242;29;20236;-85
2021/07/13 05:10:42;;;;;;;17.33;14.13;;;19.40;99.90;;;;;;4930881;28;20245;-85
2021/07/13 05:13:11;;;;;;;15.93;13.07;;;19.60;99.90;;;;;;4936552;29;20198;-85
2021/07/13 05:15:40;;;;;;;14.40;12.93;;;19.80;99.90;;;;;;4929941;29;20234;-86
2021/07/13 05:18:09;;;;;;;13.27;11.97;;;20.00;99.90;;;;;;4921734;29;20641;-86
2021/07/13 05:20:43;;;;;;;14.60;11.63;;;20.10;99.90;;;;;;4929835;29;20214;-84
2021/07/13 05:23:12;;;;;;;14.90;11.77;;;20.30;99.90;;;;;;4937708;29;20221;-86
2021/07/13 05:25:43;;;;;;;12.43;11.13;;;20.40;99.90;;;;;;4922952;29;20245;-86
2021/07/13 05:28:13;;;;;;;11.83;10.40;;;20.40;99.90;;;;;;4924318;29;20698;-87
2021/07/13 05:30:45;;;;;;;12.50;11.13;;;20.30;99.90;;;;;;4934417;29;20225;-85
2021/07/13 05:33:16;;;;;;;12.63;11.33;;;20.20;99.90;;;;;;4932437;29;20221;-85
2021/07/13 05:35:46;;;;;;;12.60;11.30;;;20.10;99.90;;;;;;4940322;28;20198;-86
2021/07/13 05:38:16;;;;;;;13.30;11.90;;;20.00;99.90;;;;;;4935006;29;20216;-85
2021/07/13 05:40:47;;;;;;;12.33;11.03;;;19.90;99.90;;;;;;4926097;29;20476;-85
2021/07/13 05:43:19;;;;;;;12.97;11.67;;;19.90;99.90;;;;;;4928466;28;20266;-86
2021/07/13 05:45:48;;;;;;;13.37;11.83;;;19.90;99.90;;;;;;4928386;29;20206;-85
2021/07/13 05:48:18;;;;;;;13.03;11.63;;;19.90;99.90;;;;;;4907316;29;20241;-89
2021/07/13 05:50:47;;;;;;;13.37;11.97;;;20.00;99.90;;;;;;4925208;29;20418;-85
2021/07/13 05:53:19;;;;;;;12.67;11.30;;;20.00;99.90;;;;;;4938200;28;20322;-86
2021/07/13 05:55:52;;;;;;;14.03;11.23;;;20.00;99.90;;;;;;4943555;29;20210;-85
2021/07/13 05:58:23;;;;;;;13.80;11.63;;;20.00;99.90;;;;;;4945575;28;20205;-87
2021/07/13 06:00:53;;;;;;;14.83;12.83;;;20.10;99.90;;;;;;4943804;28;20194;-84
2021/07/13 06:03:24;;;;;;;13.70;12.17;;;20.10;99.90;;;;;;4948669;28;20191;-84
2021/07/13 06:05:54;;;;;;;21.37;12.50;;;20.20;99.90;;;;;;4926379;28;20209;-85
2021/07/13 06:08:23;;;;;;;17.43;14.23;;;20.20;99.90;;;;;;4937766;28;20229;-86
2021/07/13 06:10:55;;;;;;;14.60;13.00;;;20.30;99.90;;;;;;4901506;29;21086;-86
2021/07/13 06:13:24;;;;;;;16.00;14.40;;;20.40;99.90;;;;;;4921887;28;20213;-84
2021/07/13 06:15:53;;;;;;;17.00;13.20;;;20.50;99.90;;;;;;4914379;28;20220;-85
2021/07/13 06:18:33;;;;;;;13.73;12.43;;;20.50;99.90;;;;;;4914873;29;20202;-85
2021/07/13 06:21:12;;;;;;;14.03;12.63;;;20.60;99.90;;;;;;4895840;29;20210;-86
2021/07/13 06:23:41;;;;;;;13.13;11.83;;;20.60;99.90;;;;;;4918881;28;20616;-89
2021/07/13 06:26:12;;;;;;;13.53;11.40;;;20.60;99.90;;;;;;4922632;29;20708;-85
2021/07/13 06:28:40;;;;;;;12.10;10.90;;;20.60;99.90;;;;;;4936558;28;20321;-86
2021/07/13 06:31:10;;;;;;;12.63;10.57;;;20.50;99.90;;;;;;4915237;29;20370;-86
2021/07/13 06:33:39;;;;;;;12.13;10.90;;;20.40;99.90;;;;;;4923393;29;20198;-86
2021/07/13 06:36:11;;;;;;;13.00;11.70;;;20.40;99.90;;;;;;4926038;29;20214;-86
2021/07/13 06:38:42;;;;;;;12.77;11.57;;;20.40;99.90;;;;;;4932764;28;20202;-87
2021/07/13 06:41:13;;;;;;;12.80;11.60;;;20.40;99.90;;;;;;4931454;29;20221;-89
2021/07/13 06:43:43;;;;;;;13.50;12.10;;;20.50;99.90;;;;;;4923663;29;20206;-84
2021/07/13 06:46:12;;;;;;;13.20;11.80;;;20.50;99.90;;;;;;4926257;29;20418;-88
2021/07/13 06:48:41;;;;;;;13.50;12.10;;;20.70;99.90;;;;;;4908183;29;20243;-84
2021/07/13 06:51:10;;;;;;;12.63;11.27;;;20.90;99.90;;;;;;4903369;29;21321;-86
2021/07/13 06:53:38;;;;;;;13.43;11.20;;;20.90;99.90;;;;;;4910932;29;20261;-84
2021/07/13 06:56:08;;;;;;;12.00;10.90;;;21.00;99.90;;;;;;4925707;28;20202;-86
2021/07/13 06:58:38;;;;;;;12.65;11.35;;;21.10;99.90;;;;;;4940750;28;20205;-85
2021/07/13 07:01:08;;;;;;;13.52;12.15;;;21.30;99.90;;;;;;4929773;28;20198;-84
2021/07/13 07:03:39;;;;;;;12.75;11.35;;;21.40;99.90;;;;;;4939580;28;20182;-85
2021/07/13 07:06:21;;;;;;;13.20;10.88;;;21.50;99.90;;;;;;4919817;29;20206;-86
2021/07/13 07:08:52;;;;;;;13.00;10.77;;;21.30;99.90;;;;;;4933373;28;20437;-86
2021/07/13 07:11:22;;;;;;;12.43;11.10;;;21.20;99.90;;;;;;4940404;28;20317;-86
2021/07/13 07:13:52;;;;;;;13.20;11.70;;;21.20;99.90;;;;;;4930631;28;20289;-86
2021/07/13 07:16:27;;;;;;;11.45;10.27;;;21.20;99.90;;;;;;4914787;29;20229;-85
2021/07/13 07:19:02;;;;;;;13.23;11.90;;;21.30;99.90;;;;;;4922624;28;20261;-87
2021/07/13 07:21:43;;;;;;;13.55;12.15;;;21.40;99.90;;;;;;4928336;29;20213;-85
2021/07/13 07:25:21;;;;;;;13.13;11.48;;;21.50;99.90;;;;;;4939312;28;20556;-86
2021/07/13 07:27:57;;;;;;;12.98;11.32;;;21.40;99.90;;;;;;4915477;29;20214;-84
2021/07/13 07:30:31;;;;;;;14.47;12.13;;;21.20;99.90;;;;;;4914486;29;20226;-87
2021/07/13 07:33:01;;;;;;;16.40;11.87;;;21.10;99.90;;;;;;4922421;29;20221;-84
2021/07/13 07:35:30;;;;;;;12.93;11.63;;;20.90;99.90;;;;;;4934453;28;20210;-83
2021/07/13 07:38:00;;;;;;;13.67;12.20;;;20.70;99.90;;;;;;4906990;29;20512;-85
2021/07/13 07:40:29;;;;;;;13.67;12.37;;;20.70;99.90;;;;;;4918309;28;20210;-85
2021/07/13 07:42:59;;;;;;;12.90;11.47;;;20.50;99.90;;;;;;4915921;28;20225;-87
2021/07/13 07:45:31;;;;;;;14.80;13.17;;;20.40;99.90;;;;;;4908252;29;21723;-85
2021/07/13 07:48:01;;;;;;;15.40;13.80;;;20.40;99.90;;;;;;4930005;29;20342;-86
2021/07/13 07:50:31;;;;;;;16.43;14.03;;;20.60;99.90;;;;;;4920907;28;20348;-84
2021/07/13 07:53:04;;;;;;;17.37;14.20;;;21.00;99.90;;;;;;4919345;29;20244;-86
2021/07/13 07:55:34;;;;;;;17.13;15.32;;;21.20;99.90;;;;;;4918885;28;20210;-86
2021/07/13 07:58:04;;;;;;;16.63;14.93;;;21.30;99.90;;;;;;4923230;29;20225;-86
2021/07/13 08:00:34;;;;;;;17.75;14.15;;;21.60;99.90;;;;;;4926504;28;20212;-82
2021/07/13 08:03:04;;;;;;;16.77;13.27;;;21.70;99.90;;;;;;4924003;28;20250;-86
2021/07/13 08:05:36;;;;;;;18.92;14.70;;;21.70;99.90;;;;;;4924241;29;20236;-85
2021/07/13 08:08:08;;;;;;;17.48;14.75;;;21.60;99.90;;;;;;4915699;28;20210;-87
2021/07/13 08:10:38;;;;;;;15.05;13.23;;;21.40;99.90;;;;;;4920135;29;20351;-86
2021/07/13 08:13:07;;;;;;;17.53;14.73;;;21.30;99.90;;;;;;4914621;28;20348;-86
2021/07/13 08:15:37;;;;;;;17.83;15.95;;;21.20;99.90;;;;;;4922957;29;20874;-86
2021/07/13 08:18:07;;;;;;;15.30;13.43;;;21.20;99.90;;;;;;4904043;29;20642;-85
2021/07/13 08:20:36;;;;;;;15.60;13.90;;;21.20;99.90;;;;;;4933272;28;20534;-89
2021/07/13 08:23:05;;;;;;;21.13;18.80;;;21.30;99.90;;;;;;4938888;28;20273;-87
2021/07/13 08:25:34;;;;;;;21.70;19.40;;;21.30;99.90;;;;;;4937140;28;20214;-87
2021/07/13 08:28:04;;;;;;;20.80;18.67;;;21.20;99.90;;;;;;4938250;29;20780;-87
2021/07/13 08:30:33;;;;;;;14.57;13.02;;;21.20;99.90;;;;;;4918001;29;20242;-85
2021/07/13 08:33:04;;;;;;;13.63;12.27;;;21.20;99.90;;;;;;4925853;29;20206;-87
2021/07/13 08:35:33;;;;;;;13.53;12.10;;;21.10;99.90;;;;;;4912091;29;20557;-85
2021/07/13 08:38:02;;;;;;;12.93;11.53;;;21.00;99.90;;;;;;4912324;29;20222;-85
2021/07/13 08:40:39;;;;;;;14.67;12.47;;;20.90;99.90;;;;;;4936752;28;20447;-87
2021/07/13 08:43:11;;;;;;;15.30;13.07;;;20.80;99.90;;;;;;4932185;28;20306;-86
2021/07/13 08:45:41;;;;;;;14.60;12.33;;;20.60;99.90;;;;;;4932996;28;20585;-84
2021/07/13 08:48:13;;;;;;;13.93;12.53;;;20.50;99.90;;;;;;4935755;28;20213;-85
2021/07/13 08:50:42;;;;;;;12.97;11.67;;;20.40;99.90;;;;;;4917112;28;20279;-87
2021/07/13 08:53:11;;;;;;;13.47;12.07;;;20.30;99.90;;;;;;4934088;28;20209;-86
2021/07/13 08:55:41;;;;;;;11.67;10.43;;;20.30;99.90;;;;;;4932811;28;20704;-88
2021/07/13 08:58:15;;;;;;;8.10;6.87;;;20.30;99.90;;;;;;4929656;28;20208;-85
2021/07/13 09:00:44;;;;;;;10.83;8.00;;;20.20;99.90;;;;;;4898637;28;20273;-86
2021/07/13 09:03:32;;;;;;;9.53;8.47;;;20.30;99.90;;;;;;4887426;28;20291;-84
2021/07/13 09:06:07;;;;;;;10.00;9.00;;;20.30;99.90;;;;;;4939645;28;20431;-89
2021/07/13 09:08:38;;;;;;;10.90;9.67;;;20.20;99.90;;;;;;4937290;28;20683;-84
2021/07/13 09:11:11;;;;;;;11.80;9.63;;;20.30;99.90;;;;;;4923592;28;20233;-86
2021/07/13 09:13:42;;;;;;;9.97;8.43;;;20.20;99.90;;;;;;4924481;28;20221;-85
2021/07/13 09:16:13;;;;;;;14.33;11.50;;;20.20;99.90;;;;;;4935089;28;20582;-85
2021/07/13 09:18:45;;;;;;;11.90;9.33;;;20.30;99.90;;;;;;4901174;28;20688;-85
2021/07/13 09:21:20;;;;;;;10.73;9.40;;;20.30;99.90;;;;;;4902360;28;20297;-87
2021/07/13 09:24:08;;;;;;;11.47;10.37;;;20.40;99.90;;;;;;4923756;28;20564;-84
2021/07/13 09:26:56;;;;;;;13.67;11.73;;;20.40;99.90;;;;;;4935774;28;20226;-82
2021/07/13 09:29:34;;;;;;;13.17;11.87;;;20.50;99.90;;;;;;4935474;28;20603;-83
2021/07/13 09:32:26;;;;;;;16.90;13.80;;;20.50;99.90;;;;;;4909256;28;20296;-85
2021/07/13 09:34:59;;;;;;;17.33;14.33;;;20.50;99.90;;;;;;4926218;28;20578;-84
2021/07/13 09:37:29;;;;;;;13.97;12.00;;;20.50;99.90;;;;;;4934532;28;20473;-83
2021/07/13 09:40:07;;;;;;;13.37;11.60;;;20.70;99.90;;;;;;4935278;28;20279;-83
2021/07/13 09:42:38;;;;;;;12.10;10.90;;;20.70;99.90;;;;;;4943596;28;20228;-84
2021/07/13 09:45:22;;;;;;;13.67;12.27;;;20.80;99.90;;;;;;4926504;28;20272;-84
2021/07/13 09:47:52;;;;;;;13.97;12.60;;;20.80;99.90;;;;;;4941610;28;20213;-83
2021/07/13 09:50:39;;;;;;;12.63;11.43;;;20.80;99.90;;;;;;4921127;28;20477;-82
2021/07/13 09:53:11;;;;;;;13.23;11.90;;;20.90;99.90;;;;;;4925475;28;20209;-83
2021/07/13 09:55:40;;;;;;;13.52;12.07;;;21.00;99.90;;;;;;4953752;28;20271;-84
2021/07/13 09:58:17;;;;;;;13.70;12.03;;;21.20;99.90;;;;;;4947558;28;20185;-83
2021/07/13 10:00:48;;;;;;;14.07;12.68;;;21.30;99.90;;;;;;4932205;28;20265;-82
2021/07/13 10:03:32;;;;;;;14.81;12.66;;;21.30;99.90;;;;;;4570173;28;10001656;-83
2021/07/13 10:06:03;;;;;;;13.27;11.88;;;21.40;99.90;;;;;;4837070;29;20210;-82
2021/07/13 10:08:32;;;;;;;12.95;11.65;;;21.50;99.90;;;;;;4875335;28;20198;-83
2021/07/13 10:11:01;;;;;;;12.93;11.63;;;21.40;99.90;;;;;;4903218;29;20230;-85
2021/07/13 10:13:33;;;;;;;13.40;12.00;;;21.50;99.90;;;;;;4911823;28;20209;-83
2021/07/13 10:16:02;;;;;;;13.00;11.80;;;21.60;99.90;;;;;;4904465;29;20209;-83
2021/07/13 10:18:31;;;;;;;12.38;11.07;;;21.70;99.90;;;;;;4904294;28;20593;-82
2021/07/13 10:21:00;;;;;;;11.05;10.02;;;21.80;99.90;;;;;;4897109;28;20209;-83
2021/07/13 10:23:30;;;;;;;12.35;11.15;;;21.60;99.90;;;;;;4892560;28;20755;-82
2021/07/13 10:25:59;;;;;;;11.52;10.45;;;21.70;99.90;;;;;;4890238;28;20313;-83
2021/07/13 10:28:34;;;;;;;12.77;11.52;;;21.90;99.90;;;;;;4909259;28;20233;-85
2021/07/13 10:31:03;;;;;;;11.18;10.07;;;22.10;99.90;;;;;;4909239;28;20316;-85
2021/07/13 10:33:36;;;;;;;11.23;10.05;;;22.30;99.90;;;;;;4907692;28;20214;-86
2021/07/13 10:36:29;;;;;;;10.43;9.52;;;22.40;99.80;;;;;;4911358;29;20210;-86
2021/07/13 10:39:29;;;;;;;11.05;10.05;;;22.60;98.30;;;;;;4913211;28;20823;-87
2021/07/13 10:42:00;;;;;;;10.95;9.88;;;22.80;99.30;;;;;;4903689;29;20209;-84
2021/07/13 10:44:42;;;;;;;11.27;10.25;;;23.10;98.50;;;;;;4914799;28;20759;-85
2021/07/13 10:47:22;;;;;;;9.98;9.18;;;23.40;98.00;;;;;;4907454;28;20213;-86
2021/07/13 10:50:24;;;;;;;10.65;9.55;;;23.60;96.20;;;;;;4911375;28;21504;-84
2021/07/13 10:52:57;;;;;;;11.27;10.13;;;23.40;93.10;;;;;;4904127;29;20722;-86
2021/07/13 10:56:08;;;;;;;11.15;10.15;;;23.20;96.90;;;;;;4909477;29;20448;-85
2021/07/13 10:58:48;;;;;;;10.20;9.10;;;23.40;98.20;;;;;;4917360;28;20217;-84
2021/07/13 11:01:21;;;;;;;10.52;9.38;;;23.60;94.70;;;;;;4906391;28;20214;-84
2021/07/13 11:03:54;;;;;;;10.32;9.38;;;23.80;94.10;;;;;;4911802;28;20270;-85
2021/07/13 11:06:56;;;;;;;10.52;9.63;;;23.90;94.80;;;;;;4907893;28;20207;-84
2021/07/13 11:09:38;;;;;;;10.88;9.88;;;23.90;94.80;;;;;;4903509;28;20533;-84
2021/07/13 11:12:17;;;;;;;10.27;9.27;;;24.10;96.20;;;;;;4900269;29;20620;-83
2021/07/13 11:15:00;;;;;;;10.95;10.00;;;24.20;93.90;;;;;;4908438;28;20236;-85
2021/07/13 11:17:31;;;;;;;10.95;9.85;;;24.20;95.20;;;;;;4911033;29;20304;-84
2021/07/13 11:20:10;;;;;;;11.38;10.32;;;24.20;94.30;;;;;;4913015;28;20206;-84
2021/07/13 11:22:42;;;;;;;11.95;10.73;;;24.30;96.90;;;;;;4899127;29;20510;-85
2021/07/13 11:25:29;;;;;;;11.90;10.82;;;24.50;92.70;;;;;;4908924;28;20206;-84
2021/07/13 11:28:08;;;;;;;11.38;10.32;;;24.60;92.10;;;;;;4926998;28;20253;-83
2021/07/13 11:30:37;;;;;;;12.68;11.38;;;24.70;92.50;;;;;;4935743;28;20197;-84
2021/07/13 11:33:07;;;;;;;12.63;11.60;;;24.70;93.10;;;;;;4930895;28;20345;-85
2021/07/13 11:35:38;;;;;;;12.73;11.60;;;24.70;93.70;;;;;;4920414;29;20428;-83
2021/07/13 11:38:08;;;;;;;12.95;11.85;;;24.80;93.20;;;;;;4930482;28;20447;-86
2021/07/13 11:40:36;;;;;;;13.23;12.13;;;24.90;93.20;;;;;;4933719;28;20445;-83
2021/07/13 11:43:05;;;;;;;13.15;11.85;;;25.00;93.10;;;;;;4920351;28;20712;-85
2021/07/13 11:45:36;;;;;;;12.88;11.68;;;25.20;92.10;;;;;;4912733;28;20683;-84
2021/07/13 11:48:06;;;;;;;12.35;11.25;;;25.30;92.30;;;;;;4920945;28;20202;-83
2021/07/13 11:50:36;;;;;;;12.77;11.60;;;25.10;91.80;;;;;;4935875;28;20463;-86
2021/07/13 11:53:22;;;;;;;12.48;11.25;;;25.10;92.30;;;;;;4930169;28;20278;-87
2021/07/13 11:56:01;;;;;;;12.32;11.23;;;25.20;92.60;;;;;;4927233;28;20318;-85
2021/07/13 11:58:31;;;;;;;12.50;11.40;;;25.10;92.30;;;;;;4920889;28;20804;-84
2021/07/13 12:01:20;;;;;;;12.40;11.23;;;25.10;92.00;;;;;;4907077;29;20429;-87
2021/07/13 12:03:50;;;;;;;13.02;11.88;;;25.20;92.50;;;;;;4907197;28;20572;-84
2021/07/13 12:06:19;;;;;;;12.73;11.65;;;25.20;92.70;;;;;;4903212;29;20375;-84
2021/07/13 12:08:55;;;;;;;13.07;11.98;;;25.40;92.80;;;;;;4898959;29;20545;-84
2021/07/13 12:11:26;;;;;;;12.90;11.70;;;25.50;92.90;;;;;;4918189;28;20226;-84
2021/07/13 12:13:58;;;;;;;14.05;12.75;;;25.70;92.80;;;;;;4930454;28;20273;-85
2021/07/13 12:16:30;;;;;;;12.90;11.60;;;25.70;91.50;;;;;;4914883;28;20318;-84
2021/07/13 12:19:00;;;;;;;12.65;11.35;;;25.80;91.80;;;;;;4904716;28;20307;-84
2021/07/13 12:21:30;;;;;;;14.55;13.18;;;25.90;91.60;;;;;;4901312;28;20246;-85
2021/07/13 12:24:01;;;;;;;14.38;13.00;;;26.00;91.70;;;;;;4895419;28;20221;-84
2021/07/13 12:26:31;;;;;;;13.93;12.52;;;26.20;91.80;;;;;;4899896;29;20736;-82
2021/07/13 12:29:09;;;;;;;14.30;13.00;;;26.30;91.90;;;;;;4914990;29;20229;-83
2021/07/13 12:31:54;;;;;;;13.65;12.50;;;26.60;92.00;;;;;;4904969;29;20232;-85
2021/07/13 12:34:25;;;;;;;14.85;13.55;;;26.70;92.20;;;;;;4910857;29;20573;-83
2021/07/13 12:37:06;;;;;;;14.15;12.95;;;26.90;92.50;;;;;;4912070;28;20659;-86
2021/07/13 12:39:36;;;;;;;14.15;12.85;;;27.10;91.00;;;;;;4909327;29;20697;-83
2021/07/13 12:42:08;;;;;;;14.55;13.00;;;27.00;91.40;;;;;;4905068;29;20213;-84
2021/07/13 12:44:43;;;;;;;14.75;13.45;;;27.00;91.50;;;;;;4902998;29;20821;-85
2021/07/13 12:47:26;;;;;;;13.63;12.52;;;27.20;91.60;;;;;;4903461;29;20212;-83
2021/07/13 12:50:11;;;;;;;15.30;13.75;;;27.30;90.10;;;;;;4901716;29;20208;-84
2021/07/13 12:52:41;;;;;;;14.68;13.38;;;27.50;90.20;;;;;;4899925;29;20948;-82
2021/07/13 12:55:14;;;;;;;14.55;13.23;;;27.60;89.70;;;;;;4899903;29;20420;-82